Time;durP1;ratioP1;P1;durP2;ratioP2;P2;SDS_P1;SDS_P2;PMS_P1;PMS_P2;Temp;Humidity;BMP_temperature;BMP_pressure;BME280_temperature;BME280_humidity;BME280_pressure;Samples;Min_cycle;Max_cycle;Signal;HPM_P1;HPM_P2
2023/12/28 00:00:16;;;;;;;5.03;3.22;;;;;;;5.14;100.00;100587.38;7396913;19;20018;-67
2023/12/28 00:02:44;;;;;;;5.82;3.58;;;;;;;5.13;99.90;100589.97;7396066;19;20089;-69
2023/12/28 00:05:12;;;;;;;5.57;3.15;;;;;;;5.13;100.00;100572.66;7394606;19;20077;-69
2023/12/28 00:07:41;;;;;;;5.25;2.90;;;;;;;5.13;99.18;100582.19;7395761;19;20518;-68
2023/12/28 00:10:13;;;;;;;5.70;3.15;;;;;;;5.13;98.28;100576.97;7394447;19;20082;-69
2023/12/28 00:12:41;;;;;;;6.22;2.97;;;;;;;5.12;99.41;100555.31;7394084;19;20074;-69
2023/12/28 00:15:11;;;;;;;6.32;3.30;;;;;;;5.14;98.02;100543.16;7396088;19;20011;-69
2023/12/28 00:17:39;;;;;;;7.80;2.88;;;;;;;5.16;97.97;100538.81;7396231;19;20014;-69
2023/12/28 00:20:09;;;;;;;4.75;2.85;;;;;;;5.18;99.06;100533.59;7395768;19;20035;-69
2023/12/28 00:22:38;;;;;;;6.38;2.67;;;;;;;5.19;98.08;100519.75;7395701;19;20026;-69
2023/12/28 00:25:08;;;;;;;3.58;2.53;;;;;;;5.21;96.92;100523.22;7393159;19;20006;-69
2023/12/28 00:27:46;;;;;;;4.97;2.80;;;;;;;5.22;96.05;100519.75;7395358;19;20509;-69
2023/12/28 00:30:17;;;;;;;4.22;2.80;;;;;;;5.27;97.00;100528.41;7396021;19;20038;-69
2023/12/28 00:32:45;;;;;;;2.75;2.15;;;;;;;5.31;96.42;100544.88;7394082;19;20018;-70
2023/12/28 00:35:14;;;;;;;3.42;2.30;;;;;;;5.31;97.16;100540.53;7394911;19;20010;-69
2023/12/28 00:37:42;;;;;;;5.13;2.60;;;;;;;5.35;98.29;100544.84;7393193;19;20481;-67
2023/12/28 00:40:12;;;;;;;4.70;2.30;;;;;;;5.39;97.92;100536.13;7395261;19;20027;-69
2023/12/28 00:42:43;;;;;;;3.70;2.20;;;;;;;5.41;96.87;100538.75;7395024;19;20011;-70
2023/12/28 00:45:11;;;;;;;2.95;2.10;;;;;;;5.43;95.64;100513.56;7395551;19;20074;-69
2023/12/28 00:47:42;;;;;;;4.40;2.45;;;;;;;5.50;95.41;100523.09;7394956;19;20022;-70
2023/12/28 00:50:11;;;;;;;3.47;2.50;;;;;;;5.55;92.20;100517.88;7392848;19;20499;-68
2023/12/28 00:52:40;;;;;;;5.10;2.60;;;;;;;5.62;92.56;100501.34;7393441;19;20095;-67
2023/12/28 00:55:10;;;;;;;3.03;1.77;;;;;;;5.64;90.67;100499.59;7394477;19;20070;-67
2023/12/28 00:57:38;;;;;;;4.25;1.98;;;;;;;5.67;94.57;100512.63;7394768;19;20018;-67
2023/12/28 01:00:11;;;;;;;2.47;1.90;;;;;;;5.66;94.33;100507.41;7394273;19;20024;-68
2023/12/28 01:02:39;;;;;;;3.70;2.55;;;;;;;5.67;93.42;100503.94;7395020;19;20017;-68
2023/12/28 01:05:08;;;;;;;2.70;1.75;;;;;;;5.67;93.21;100489.19;7392658;19;20015;-67
2023/12/28 01:07:37;;;;;;;2.80;2.20;;;;;;;5.68;93.65;100505.66;7394153;19;20081;-67
2023/12/28 01:10:06;;;;;;;2.85;1.88;;;;;;;5.67;92.43;100524.75;7394106;19;20079;-67
2023/12/28 01:12:35;;;;;;;3.10;1.98;;;;;;;5.67;94.00;100520.44;7392993;19;20018;-68
2023/12/28 01:15:04;;;;;;;3.53;1.83;;;;;;;5.67;91.81;100533.44;7392252;19;20027;-67
2023/12/28 01:17:35;;;;;;;3.58;2.13;;;;;;;5.69;90.10;100536.03;7393931;19;20007;-67
2023/12/28 01:20:03;;;;;;;4.35;1.98;;;;;;;5.71;88.94;100529.94;7394646;19;20103;-68
2023/12/28 01:22:32;;;;;;;3.90;2.10;;;;;;;5.73;91.64;100531.69;7393685;19;20010;-67
2023/12/28 01:25:00;;;;;;;4.88;2.58;;;;;;;5.74;93.67;100547.28;7391749;19;20086;-67
2023/12/28 01:27:29;;;;;;;3.15;1.98;;;;;;;5.74;90.43;100554.22;7391389;19;20010;-67
2023/12/28 01:29:58;;;;;;;3.42;1.88;;;;;;;5.75;93.01;100545.53;7393573;19;20090;-68
2023/12/28 01:32:26;;;;;;;2.55;1.67;;;;;;;5.76;93.38;100552.47;7392255;19;20032;-68
2023/12/28 01:34:57;;;;;;;3.22;2.30;;;;;;;5.77;93.05;100556.81;7391388;19;20544;-68
2023/12/28 01:37:30;;;;;;;3.05;2.00;;;;;;;5.77;92.88;100554.22;7393804;19;20010;-68
2023/12/28 01:39:58;;;;;;;4.00;1.98;;;;;;;5.77;89.56;100559.41;7394138;19;20014;-68
2023/12/28 01:42:29;;;;;;;3.28;2.15;;;;;;;5.77;91.67;100555.06;7393635;19;20074;-68
2023/12/28 01:44:58;;;;;;;3.17;1.80;;;;;;;5.79;92.33;100544.66;7391501;19;20019;-68
2023/12/28 01:47:27;;;;;;;3.08;1.98;;;;;;;5.78;91.19;100545.53;7400725;19;20014;-68
2023/12/28 01:49:59;;;;;;;4.60;2.33;;;;;;;5.79;88.08;100544.66;7400685;19;20029;-68
2023/12/28 01:52:28;;;;;;;4.55;2.63;;;;;;;5.82;90.96;100555.06;7399013;19;20010;-68
2023/12/28 01:54:57;;;;;;;4.25;1.83;;;;;;;5.83;90.68;100548.97;7397568;19;20021;-68
2023/12/28 01:57:26;;;;;;;3.03;2.00;;;;;;;5.83;89.94;100544.63;7400038;19;20545;-68
2023/12/28 01:59:55;;;;;;;3.45;2.05;;;;;;;5.85;89.41;100537.69;7400400;19;20014;-68
2023/12/28 02:02:25;;;;;;;2.60;1.77;;;;;;;5.87;89.46;100545.47;7400174;19;20014;-68
2023/12/28 02:04:54;;;;;;;3.78;1.90;;;;;;;5.90;91.04;100547.19;7397412;19;20031;-68
2023/12/28 02:07:26;;;;;;;4.03;1.67;;;;;;;5.90;89.22;100542.00;7400114;19;20074;-68
2023/12/28 02:09:55;;;;;;;3.55;1.88;;;;;;;5.92;90.89;100538.50;7400587;19;20074;-68
2023/12/28 02:12:23;;;;;;;2.13;1.50;;;;;;;5.93;90.74;100523.75;7398944;19;20033;-68
2023/12/28 02:14:52;;;;;;;2.50;1.40;;;;;;;5.92;88.68;100511.59;7399098;19;20019;-68
2023/12/28 02:17:28;;;;;;;4.90;2.00;;;;;;;5.90;89.48;100529.81;7399770;19;20087;-68
2023/12/28 02:19:57;;;;;;;3.08;1.80;;;;;;;5.91;90.52;100523.75;7399510;19;20070;-68
2023/12/28 02:22:30;;;;;;;2.22;1.70;;;;;;;5.90;86.99;100523.75;7397281;19;20078;-68
2023/12/28 02:25:11;;;;;;;2.92;1.40;;;;;;;5.91;83.75;100543.72;7397374;19;20017;-68
2023/12/28 02:27:42;;;;;;;5.50;1.90;;;;;;;5.91;86.64;100528.94;7399551;19;20018;-68
2023/12/28 02:30:13;;;;;;;2.40;1.70;;;;;;;5.88;82.75;100516.81;7399119;19;20500;-68
2023/12/28 02:32:59;;;;;;;3.05;1.50;;;;;;;5.91;82.44;100509.88;7398122;19;20078;-69
2023/12/28 02:35:34;;;;;;;2.67;1.80;;;;;;;5.92;83.37;100511.59;7398864;19;20086;-68
2023/12/28 02:38:07;;;;;;;4.05;2.47;;;;;;;5.91;85.63;100521.13;7398762;19;20416;-68
2023/12/28 02:40:40;;;;;;;3.67;1.60;;;;;;;5.92;87.63;100517.66;7399563;19;20082;-69
2023/12/28 02:43:09;;;;;;;2.83;1.98;;;;;;;5.94;87.92;100522.84;7398764;19;20011;-68
2023/12/28 02:45:37;;;;;;;3.85;1.77;;;;;;;5.93;86.18;100514.19;7398511;19;20022;-68
2023/12/28 02:48:07;;;;;;;2.05;1.30;;;;;;;5.94;83.36;100515.06;7398740;19;20078;-68
2023/12/28 02:50:37;;;;;;;2.30;1.52;;;;;;;5.94;83.82;100526.34;7398759;19;20073;-67
2023/12/28 02:53:06;;;;;;;2.50;1.80;;;;;;;5.96;84.70;100536.75;7397121;19;20093;-68
2023/12/28 02:55:34;;;;;;;3.05;1.90;;;;;;;5.98;84.81;100553.25;7398244;19;20529;-68
2023/12/28 02:58:05;;;;;;;1.90;1.70;;;;;;;5.95;84.25;100533.28;7398138;19;20014;-68
2023/12/28 03:00:34;;;;;;;2.58;2.05;;;;;;;6.01;86.71;100551.50;7396786;19;20070;-68
2023/12/28 03:03:02;;;;;;;5.10;2.00;;;;;;;6.03;84.77;100564.53;7397827;19;20078;-69
2023/12/28 03:05:31;;;;;;;3.53;1.92;;;;;;;6.03;86.40;100554.97;7398216;19;20010;-68
2023/12/28 03:07:59;;;;;;;2.83;2.05;;;;;;;6.07;85.83;100558.41;7398138;19;20078;-68
2023/12/28 03:10:28;;;;;;;2.20;1.65;;;;;;;6.08;87.13;100565.38;7397671;19;20379;-68
2023/12/28 03:12:57;;;;;;;3.25;2.17;;;;;;;6.10;87.83;100562.75;7396849;19;20014;-69
2023/12/28 03:15:28;;;;;;;2.20;1.65;;;;;;;6.11;87.72;100557.50;7397460;19;20006;-68
2023/12/28 03:17:57;;;;;;;2.75;1.77;;;;;;;6.13;87.70;100557.50;7397417;19;20078;-68
2023/12/28 03:20:25;;;;;;;3.25;1.92;;;;;;;6.15;89.50;100561.81;7397218;19;20477;-68
2023/12/28 03:22:54;;;;;;;4.20;2.00;;;;;;;6.15;87.92;100556.59;7397391;19;20027;-68
2023/12/28 03:25:22;;;;;;;2.13;1.63;;;;;;;6.19;88.70;100557.47;7397069;19;20070;-67
2023/12/28 03:27:57;;;;;;;2.28;1.80;;;;;;;6.17;86.40;100556.63;7396190;19;20035;-68
2023/12/28 03:30:28;;;;;;;3.42;2.10;;;;;;;6.19;88.83;100547.91;7397314;19;20075;-68
2023/12/28 03:32:57;;;;;;;3.30;1.92;;;;;;;6.22;88.88;100547.03;7396284;19;20022;-68
2023/12/28 03:35:25;;;;;;;2.00;1.60;;;;;;;6.23;88.23;100543.56;7396751;19;20476;-68
2023/12/28 03:37:53;;;;;;;3.15;1.45;;;;;;;6.25;87.78;100560.03;7397034;19;20014;-68
2023/12/28 03:40:22;;;;;;;3.70;1.80;;;;;;;6.27;88.25;100558.28;7397033;19;20022;-68
2023/12/28 03:42:50;;;;;;;2.30;1.80;;;;;;;6.30;88.13;100560.00;7396287;19;20074;-68
2023/12/28 03:45:19;;;;;;;2.95;1.63;;;;;;;6.33;87.30;100546.94;7396549;19;20082;-68
2023/12/28 03:47:51;;;;;;;2.30;1.75;;;;;;;6.35;87.16;100535.63;7396485;19;20010;-68
2023/12/28 03:50:19;;;;;;;2.25;1.45;;;;;;;6.40;88.81;100543.41;7397155;19;20078;-68
2023/12/28 03:52:47;;;;;;;2.47;1.60;;;;;;;6.43;87.87;100566.00;7394272;19;20078;-68
2023/12/28 03:55:16;;;;;;;2.15;1.58;;;;;;;6.45;87.03;100579.88;7396179;19;20497;-68
2023/12/28 03:57:46;;;;;;;2.92;1.92;;;;;;;6.49;87.60;100573.75;7396363;19;20082;-68
2023/12/28 04:00:16;;;;;;;4.72;1.60;;;;;;;6.51;87.37;100583.31;7396785;19;20019;-68
2023/12/28 04:02:45;;;;;;;3.75;2.10;;;;;;;6.54;87.70;100568.53;7395994;19;20023;-67
2023/12/28 04:05:16;;;;;;;2.72;1.67;;;;;;;6.58;86.36;100557.19;7395943;19;20455;-68
2023/12/28 04:07:44;;;;;;;2.28;1.55;;;;;;;6.62;85.94;100549.34;7395932;19;20023;-68
2023/12/28 04:10:13;;;;;;;2.22;1.85;;;;;;;6.67;85.35;100544.94;7395206;19;20494;-68
2023/12/28 04:12:41;;;;;;;3.05;1.48;;;;;;;6.73;85.71;100554.44;7395325;19;20018;-68
2023/12/28 04:15:10;;;;;;;2.20;1.52;;;;;;;6.77;85.96;100561.34;7395405;19;20082;-68
2023/12/28 04:17:39;;;;;;;2.45;1.75;;;;;;;6.81;85.84;100564.78;7395966;19;20070;-68
2023/12/28 04:20:10;;;;;;;2.90;1.50;;;;;;;6.85;85.67;100553.47;7397131;19;20070;-69
2023/12/28 04:22:43;;;;;;;2.35;1.77;;;;;;;6.90;84.60;100551.69;7394559;19;20023;-69
2023/12/28 04:25:12;;;;;;;2.97;1.40;;;;;;;6.97;84.95;100562.91;7393777;19;20031;-68
2023/12/28 04:27:40;;;;;;;2.08;1.50;;;;;;;7.04;84.49;100558.50;7393799;19;20018;-69
2023/12/28 04:30:10;;;;;;;2.63;1.70;;;;;;;7.11;85.81;100579.28;7395885;19;20505;-69
2023/12/28 04:32:39;;;;;;;2.53;1.52;;;;;;;7.18;85.35;100572.28;7398169;19;20490;-69
2023/12/28 04:35:08;;;;;;;6.53;3.95;;;;;;;7.23;85.81;100565.28;7395554;19;20074;-69
2023/12/28 04:37:37;;;;;;;2.78;1.80;;;;;;;7.28;82.75;100573.91;7394872;19;20516;-69
2023/12/28 04:40:09;;;;;;;2.70;1.80;;;;;;;7.33;82.77;100574.72;7393496;19;20018;-68
2023/12/28 04:42:38;;;;;;;3.55;1.80;;;;;;;7.39;82.60;100586.81;7394870;19;20485;-69
2023/12/28 04:45:08;;;;;;;3.17;2.10;;;;;;;7.46;83.78;100590.25;7395091;19;20014;-69
2023/12/28 04:47:36;;;;;;;2.47;1.67;;;;;;;7.54;84.46;100582.31;7395592;19;20029;-69
2023/12/28 04:50:05;;;;;;;2.22;1.70;;;;;;;7.61;82.10;100594.44;7392945;19;20375;-69
2023/12/28 04:52:34;;;;;;;4.07;2.28;;;;;;;7.68;82.80;100588.22;7394040;19;20501;-69
2023/12/28 04:55:03;;;;;;;4.13;1.90;;;;;;;7.74;83.71;100577.72;7392564;19;20360;-68
2023/12/28 04:57:34;;;;;;;2.50;1.60;;;;;;;7.80;83.18;100571.56;7394644;19;20031;-68
2023/12/28 05:00:03;;;;;;;2.75;1.92;;;;;;;7.83;77.47;100576.72;7395064;19;20014;-69
2023/12/28 05:02:31;;;;;;;5.18;1.90;;;;;;;7.88;77.63;100585.38;7394530;19;20021;-68
2023/12/28 05:05:00;;;;;;;2.47;1.98;;;;;;;7.92;81.46;100584.47;7392474;19;20022;-68
2023/12/28 05:07:28;;;;;;;2.80;2.05;;;;;;;7.97;83.13;100598.34;7393988;19;20007;-68
2023/12/28 05:09:56;;;;;;;6.20;4.18;;;;;;;8.01;82.35;100603.50;7393848;19;20480;-68
2023/12/28 05:12:25;;;;;;;4.85;2.00;;;;;;;8.04;81.86;100590.38;7393822;19;20014;-68
2023/12/28 05:14:56;;;;;;;5.00;2.25;;;;;;;8.06;81.84;100599.06;7391885;19;20078;-68
2023/12/28 05:17:25;;;;;;;2.58;1.75;;;;;;;8.08;80.66;100599.94;7394602;19;20018;-68
2023/12/28 05:19:53;;;;;;;3.38;2.00;;;;;;;8.09;79.89;100601.66;7394184;19;20421;-68
2023/12/28 05:22:21;;;;;;;2.92;2.00;;;;;;;8.12;82.31;100604.22;7398656;19;20014;-68
2023/12/28 05:25:03;;;;;;;3.88;1.80;;;;;;;8.13;79.61;100612.03;7399062;19;20014;-68
2023/12/28 05:27:31;;;;;;;2.75;1.95;;;;;;;8.18;80.83;100617.19;7398950;19;20633;-68
2023/12/28 05:30:02;;;;;;;3.95;2.00;;;;;;;8.20;81.64;100620.66;7401405;19;20019;-68
2023/12/28 05:32:30;;;;;;;3.75;1.88;;;;;;;8.22;81.81;100611.03;7400871;19;20006;-69
2023/12/28 05:34:59;;;;;;;2.05;1.45;;;;;;;8.22;80.06;100603.19;7398291;19;20035;-68
2023/12/28 05:37:27;;;;;;;3.95;2.05;;;;;;;8.19;75.80;100625.91;7400351;19;20014;-68
2023/12/28 05:39:57;;;;;;;2.30;1.77;;;;;;;8.22;73.57;100646.78;7400612;19;20022;-67
2023/12/28 05:42:25;;;;;;;3.47;2.20;;;;;;;8.23;82.40;100636.28;7397883;19;20519;-67
2023/12/28 05:44:54;;;;;;;5.32;2.17;;;;;;;8.24;78.53;100634.53;7398168;19;20007;-67
2023/12/28 05:47:25;;;;;;;4.13;2.40;;;;;;;8.22;77.28;100626.72;7398119;19;20015;-67
2023/12/28 05:49:54;;;;;;;4.55;2.45;;;;;;;8.22;81.34;100642.41;7401340;19;20018;-68
2023/12/28 05:52:22;;;;;;;5.20;2.75;;;;;;;8.20;81.02;100644.19;7400517;19;20010;-67
2023/12/28 05:54:51;;;;;;;5.00;2.85;;;;;;;8.20;82.08;100643.31;7398282;19;20371;-68
2023/12/28 05:57:19;;;;;;;3.58;2.20;;;;;;;8.18;80.52;100656.41;7400626;19;20086;-68
2023/12/28 05:59:47;;;;;;;4.22;2.17;;;;;;;8.17;80.88;100649.44;7400400;19;20018;-68
2023/12/28 06:02:16;;;;;;;3.83;2.53;;;;;;;8.16;81.50;100666.00;7399692;19;20011;-67
2023/12/28 06:04:47;;;;;;;3.55;2.70;;;;;;;8.15;82.49;100659.03;7397840;19;20022;-67
2023/12/28 06:07:15;;;;;;;3.40;2.22;;;;;;;8.14;80.64;100666.03;7400180;19;20082;-68
2023/12/28 06:09:45;;;;;;;5.05;2.70;;;;;;;8.11;82.42;100670.44;7396924;19;20010;-68
2023/12/28 06:12:14;;;;;;;3.45;2.03;;;;;;;8.08;79.41;100652.19;7400280;19;20003;-69
2023/12/28 06:14:43;;;;;;;4.10;1.80;;;;;;;8.08;78.98;100670.47;7397656;19;20011;-69
2023/12/28 06:17:11;;;;;;;4.70;1.83;;;;;;;8.07;84.25;100658.28;7399208;19;20078;-68
2023/12/28 06:19:39;;;;;;;3.00;2.00;;;;;;;8.04;80.58;100661.81;7396968;19;20011;-69
2023/12/28 06:22:11;;;;;;;4.03;2.25;;;;;;;8.03;81.94;100667.06;7398975;19;20549;-69
2023/12/28 06:24:40;;;;;;;3.42;2.60;;;;;;;8.02;83.83;100678.38;7397284;19;20011;-68
2023/12/28 06:27:15;;;;;;;4.50;2.30;;;;;;;8.01;85.22;100671.44;7397803;19;20027;-68
2023/12/28 06:29:43;;;;;;;3.70;2.38;;;;;;;7.99;85.23;100672.31;7399803;19;20019;-67
2023/12/28 06:32:11;;;;;;;3.72;2.25;;;;;;;7.95;84.28;100668.00;7397563;19;20018;-68
2023/12/28 06:34:40;;;;;;;3.22;2.10;;;;;;;7.93;85.51;100659.31;7396558;19;20083;-67
2023/12/28 06:37:11;;;;;;;4.78;2.65;;;;;;;7.91;85.30;100668.06;7398913;19;20078;-68
2023/12/28 06:39:39;;;;;;;5.97;2.95;;;;;;;7.88;85.60;100660.28;7399087;19;20022;-68
2023/12/28 06:42:08;;;;;;;5.60;3.65;;;;;;;7.85;85.34;100665.50;7398597;19;20432;-68
2023/12/28 06:44:44;;;;;;;6.57;3.03;;;;;;;7.81;85.35;100668.19;7396317;19;20365;-68
2023/12/28 06:47:13;;;;;;;7.47;3.00;;;;;;;7.78;85.74;100664.72;7398789;19;20065;-68
2023/12/28 06:49:41;;;;;;;5.40;2.25;;;;;;;7.75;85.99;100673.47;7399306;19;20020;-68
2023/12/28 06:52:12;;;;;;;3.13;2.40;;;;;;;7.72;85.62;100668.28;7396286;19;20041;-68
2023/12/28 06:54:40;;;;;;;3.08;2.45;;;;;;;7.69;84.49;100663.09;7396525;19;20033;-68
2023/12/28 06:57:09;;;;;;;3.17;2.00;;;;;;;7.66;85.01;100671.81;7398259;19;20010;-68
2023/12/28 06:59:37;;;;;;;5.78;2.45;;;;;;;7.64;85.23;100672.72;7398831;19;20019;-68
2023/12/28 07:02:06;;;;;;;3.63;2.58;;;;;;;7.62;86.27;100672.75;7397571;19;20014;-68
2023/12/28 07:04:35;;;;;;;4.35;2.55;;;;;;;7.60;85.76;100669.28;7394946;19;20015;-68
2023/12/28 07:07:03;;;;;;;4.88;2.65;;;;;;;7.57;86.49;100671.94;7396778;19;20014;-68
2023/12/28 07:09:34;;;;;;;4.40;2.95;;;;;;;7.53;85.02;100671.97;7397776;19;20073;-68
2023/12/28 07:12:02;;;;;;;4.30;2.88;;;;;;;7.50;86.53;100675.47;7397796;19;20018;-68
2023/12/28 07:14:31;;;;;;;6.13;2.80;;;;;;;7.48;86.51;100682.44;7395212;19;20423;-68
2023/12/28 07:17:00;;;;;;;4.07;2.92;;;;;;;7.44;87.61;100693.81;7397915;19;20014;-68
2023/12/28 07:19:28;;;;;;;5.70;3.10;;;;;;;7.42;87.32;100706.00;7397403;19;20024;-68
2023/12/28 07:21:57;;;;;;;4.63;2.75;;;;;;;7.39;86.76;100708.66;7397068;19;20027;-68
2023/12/28 07:24:26;;;;;;;4.53;2.90;;;;;;;7.36;87.70;100713.91;7395953;19;20010;-67
2023/12/28 07:26:57;;;;;;;5.18;3.38;;;;;;;7.33;87.34;100717.41;7396540;19;20015;-68
2023/12/28 07:29:25;;;;;;;4.85;3.25;;;;;;;7.30;86.83;100717.41;7398298;19;20415;-68
2023/12/28 07:31:54;;;;;;;5.45;3.20;;;;;;;7.27;85.58;100713.09;7396875;19;20014;-68
2023/12/28 07:34:22;;;;;;;7.05;3.38;;;;;;;7.26;87.84;100724.41;7395519;19;20215;-67
2023/12/28 07:36:51;;;;;;;3.85;2.85;;;;;;;7.22;88.08;100725.31;7397035;19;20078;-68
2023/12/28 07:39:19;;;;;;;4.78;2.63;;;;;;;7.25;88.02;100735.72;7397771;19;20081;-68
2023/12/28 07:41:49;;;;;;;3.47;2.70;;;;;;;7.25;88.34;100740.09;7394447;19;20481;-68
2023/12/28 07:44:20;;;;;;;3.92;3.13;;;;;;;7.24;87.46;100734.00;7392877;19;20015;-68
2023/12/28 07:46:49;;;;;;;4.07;2.50;;;;;;;7.24;88.13;100730.53;7397305;19;20014;-68
2023/12/28 07:49:17;;;;;;;4.45;2.30;;;;;;;7.23;88.40;100727.06;7396678;19;20359;-68
2023/12/28 07:51:46;;;;;;;3.97;2.40;;;;;;;7.23;87.95;100721.84;7395121;19;20014;-68
2023/12/28 07:54:14;;;;;;;3.40;2.58;;;;;;;7.23;88.81;100728.78;7395125;19;20501;-68
2023/12/28 07:56:42;;;;;;;4.85;2.45;;;;;;;7.21;88.24;100731.41;7394353;19;20027;-68
2023/12/28 07:59:11;;;;;;;3.55;3.00;;;;;;;7.23;89.56;100736.59;7396196;19;20014;-68
2023/12/28 08:01:42;;;;;;;4.95;2.50;;;;;;;7.22;88.57;100735.75;7396303;19;20010;-68
2023/12/28 08:04:11;;;;;;;2.47;2.05;;;;;;;7.23;90.01;100740.09;7395030;19;20018;-68
2023/12/28 08:06:39;;;;;;;2.80;2.40;;;;;;;7.22;88.80;100740.13;7395675;19;20476;-69
2023/12/28 08:09:08;;;;;;;4.65;2.90;;;;;;;7.21;88.68;100749.69;7395421;19;20022;-68
2023/12/28 08:11:37;;;;;;;4.32;2.97;;;;;;;7.21;89.16;100751.44;7396064;19;20014;-69
2023/12/28 08:14:05;;;;;;;3.92;2.58;;;;;;;7.21;89.71;100752.28;7394593;19;20011;-70
2023/12/28 08:16:34;;;;;;;4.20;2.90;;;;;;;7.23;90.00;100762.72;7395141;19;20509;-69
2023/12/28 08:19:06;;;;;;;6.43;2.17;;;;;;;7.25;88.94;100761.81;7397139;19;20006;-69
2023/12/28 08:21:34;;;;;;;3.85;2.47;;;;;;;7.27;90.02;100770.50;7396980;19;20105;-69
2023/12/28 08:24:02;;;;;;;3.30;2.50;;;;;;;7.29;89.42;100773.09;7393877;19;20011;-69
2023/12/28 08:26:32;;;;;;;3.40;2.63;;;;;;;7.30;90.31;100774.84;7393156;19;20501;-69
2023/12/28 08:29:01;;;;;;;4.25;2.92;;;;;;;7.32;90.99;100779.16;7395914;19;20424;-69
2023/12/28 08:31:29;;;;;;;4.43;2.53;;;;;;;7.29;89.96;100781.81;7395281;19;20031;-69
2023/12/28 08:33:58;;;;;;;5.40;2.60;;;;;;;7.34;90.63;100793.09;7393860;19;20048;-69
2023/12/28 08:36:29;;;;;;;4.22;2.67;;;;;;;7.34;89.54;100787.88;7393048;19;20488;-69
2023/12/28 08:38:57;;;;;;;4.55;2.50;;;;;;;7.34;90.65;100787.88;7394641;19;20502;-69
2023/12/28 08:41:26;;;;;;;3.83;3.35;;;;;;;7.36;90.78;100797.44;7392901;19;20473;-69
2023/12/28 08:43:55;;;;;;;4.18;2.80;;;;;;;7.35;90.61;100793.94;7393170;19;20088;-69
2023/12/28 08:46:24;;;;;;;5.18;2.90;;;;;;;7.36;90.89;100790.47;7394856;19;20019;-69
2023/12/28 08:48:53;;;;;;;4.28;2.80;;;;;;;7.37;90.56;100796.53;7394443;19;20552;-69
2023/12/28 08:51:21;;;;;;;4.50;2.88;;;;;;;7.37;90.96;100786.97;7394258;19;20007;-69
2023/12/28 08:53:52;;;;;;;5.03;3.22;;;;;;;7.36;90.98;100784.38;7392210;19;20423;-67
2023/12/28 08:56:23;;;;;;;3.88;3.10;;;;;;;7.39;90.49;100790.41;7402533;19;20010;-67
2023/12/28 08:58:54;;;;;;;3.80;2.70;;;;;;;7.41;89.50;100793.03;7402150;19;20010;-68
2023/12/28 09:01:25;;;;;;;4.47;2.80;;;;;;;7.43;89.20;100796.47;7401266;19;20485;-68
2023/12/28 09:03:54;;;;;;;5.15;3.00;;;;;;;7.45;91.19;100805.19;7401783;19;20414;-68
2023/12/28 09:06:23;;;;;;;3.85;2.75;;;;;;;7.48;90.78;100810.38;7401476;19;20587;-68
2023/12/28 09:08:56;;;;;;;4.50;3.00;;;;;;;7.49;89.51;100818.22;7400103;19;20457;-68
2023/12/28 09:11:25;;;;;;;5.15;3.25;;;;;;;7.54;91.75;100819.91;7400517;19;20037;-68
2023/12/28 09:13:53;;;;;;;5.40;3.13;;;;;;;7.55;91.42;100822.50;7399313;19;20011;-68
2023/12/28 09:16:19;;;;;;;5.28;2.95;;;;;;;7.58;91.12;100832.94;7398577;19;20014;-68
2023/12/28 09:18:47;;;;;;;4.55;2.65;;;;;;;7.58;91.66;100827.72;7400586;19;20018;-68
2023/12/28 09:21:16;;;;;;;4.43;2.80;;;;;;;7.61;90.97;100826.81;7398568;19;20018;-68
2023/12/28 09:23:44;;;;;;;4.22;2.72;;;;;;;7.61;91.46;100816.38;7400187;19;20018;-69
2023/12/28 09:26:15;;;;;;;6.30;3.15;;;;;;;7.63;90.30;100812.88;7400404;19;20481;-68
2023/12/28 09:28:44;;;;;;;3.65;2.80;;;;;;;7.66;90.73;100812.84;7398276;19;20027;-68
2023/12/28 09:31:12;;;;;;;5.60;3.05;;;;;;;7.68;92.34;100807.59;7401029;19;20037;-68
2023/12/28 09:33:41;;;;;;;3.63;2.70;;;;;;;7.70;91.48;100810.22;7398389;19;20035;-69
2023/12/28 09:36:12;;;;;;;4.18;3.15;;;;;;;7.71;90.78;100818.03;7398061;19;20397;-68
2023/12/28 09:38:40;;;;;;;4.55;2.80;;;;;;;7.73;92.25;100797.97;7401182;19;20014;-68
2023/12/28 09:41:17;;;;;;;5.35;3.45;;;;;;;7.73;91.23;100800.56;7397538;19;20014;-68
2023/12/28 09:43:55;;;;;;;3.75;2.83;;;;;;;7.76;91.61;100805.78;7399144;19;20422;-68
2023/12/28 09:46:26;;;;;;;4.00;2.85;;;;;;;7.75;91.69;100800.59;7401329;19;20015;-69
2023/12/28 09:48:56;;;;;;;4.65;2.78;;;;;;;7.74;92.17;100804.06;7401249;19;20018;-69
2023/12/28 09:51:25;;;;;;;4.07;2.78;;;;;;;7.76;90.87;100812.75;7400574;19;20021;-68
2023/12/28 09:53:53;;;;;;;4.95;2.80;;;;;;;7.75;91.51;100808.44;7399217;19;20044;-68
2023/12/28 09:56:25;;;;;;;5.40;2.97;;;;;;;7.75;91.69;100813.66;7397732;19;20031;-69
2023/12/28 09:58:55;;;;;;;4.82;3.42;;;;;;;7.75;91.84;100817.13;7400735;19;20011;-68
2023/12/28 10:01:24;;;;;;;5.68;3.83;;;;;;;7.75;92.94;100813.66;7399671;19;20384;-70
2023/12/28 10:03:53;;;;;;;5.20;3.65;;;;;;;7.73;91.57;100807.56;7397352;19;20011;-70
2023/12/28 10:06:21;;;;;;;4.07;3.00;;;;;;;7.74;90.80;100806.69;7397622;19;20010;-68
2023/12/28 10:08:50;;;;;;;5.40;3.90;;;;;;;7.70;90.24;100792.78;7400156;19;20010;-68
2023/12/28 10:11:20;;;;;;;5.00;3.72;;;;;;;7.69;90.73;100804.09;7397536;19;20023;-68
2023/12/28 10:13:52;;;;;;;6.65;3.47;;;;;;;7.66;92.13;100802.38;7396794;19;20031;-69
2023/12/28 10:16:20;;;;;;;5.38;3.45;;;;;;;7.69;91.72;100805.88;7397419;19;20018;-69
2023/12/28 10:18:49;;;;;;;5.88;3.05;;;;;;;7.69;92.00;100808.47;7400064;19;20029;-70
2023/12/28 10:21:17;;;;;;;6.05;3.13;;;;;;;7.69;92.84;100811.09;7397966;19;20035;-68
2023/12/28 10:23:46;;;;;;;5.15;2.97;;;;;;;7.68;92.64;100810.19;7398002;19;20027;-68
2023/12/28 10:26:14;;;;;;;4.68;2.63;;;;;;;7.66;90.31;100810.22;7396655;19;20018;-68
2023/12/28 10:28:44;;;;;;;5.63;3.00;;;;;;;7.69;92.84;100818.91;7396728;19;20087;-68
2023/12/28 10:31:17;;;;;;;5.43;3.20;;;;;;;7.68;91.45;100812.81;7398626;19;20007;-68
2023/12/28 10:33:46;;;;;;;4.93;3.10;;;;;;;7.70;92.78;100815.44;7397746;19;20022;-66
2023/12/28 10:36:18;;;;;;;4.85;2.97;;;;;;;7.70;92.08;100808.44;7397285;19;20453;-67
2023/12/28 10:38:47;;;;;;;5.05;2.92;;;;;;;7.76;93.24;100815.34;7397814;19;20017;-65
2023/12/28 10:41:17;;;;;;;4.50;3.13;;;;;;;7.76;91.84;100812.75;7397709;19;20014;-68
2023/12/28 10:43:49;;;;;;;4.95;3.22;;;;;;;7.82;91.54;100820.53;7396072;19;20014;-68
2023/12/28 10:46:28;;;;;;;4.47;2.95;;;;;;;7.83;88.45;100830.09;7398321;19;20020;-71
2023/12/28 10:49:02;;;;;;;4.10;2.58;;;;;;;7.86;90.52;100834.44;7397223;19;20022;-68
2023/12/28 10:51:30;;;;;;;4.57;2.90;;;;;;;7.88;91.97;100822.22;7397647;19;20025;-70
2023/12/28 10:54:13;;;;;;;4.93;2.55;;;;;;;7.91;89.66;100815.22;7395941;19;20078;-70
2023/12/28 10:56:47;;;;;;;4.28;3.08;;;;;;;7.96;90.11;100818.66;7395297;19;20007;-72
2023/12/28 10:59:24;;;;;;;5.20;3.10;;;;;;;8.03;90.10;100816.84;7397925;19;20028;-70
2023/12/28 11:01:59;;;;;;;4.65;3.33;;;;;;;8.08;89.31;100822.03;7398024;19;20007;-70
2023/12/28 11:04:34;;;;;;;7.57;3.13;;;;;;;8.16;91.13;100814.97;7395118;19;20007;-69
2023/12/28 11:07:06;;;;;;;3.78;2.90;;;;;;;8.24;89.98;100826.22;7396498;19;20501;-70
2023/12/28 11:09:37;;;;;;;6.25;2.72;;;;;;;8.31;90.68;100816.56;7394793;19;20010;-70
2023/12/28 11:12:10;;;;;;;3.90;2.70;;;;;;;8.38;89.92;100809.50;7396673;19;20105;-69
2023/12/28 11:14:41;;;;;;;5.45;3.28;;;;;;;8.44;89.43;100814.66;7396159;19;20433;-72
2023/12/28 11:17:14;;;;;;;3.85;3.00;;;;;;;8.55;89.78;100812.81;7396656;19;20014;-65
2023/12/28 11:19:44;;;;;;;5.15;2.90;;;;;;;8.65;90.11;100813.56;7394866;19;20007;-66
2023/12/28 11:22:19;;;;;;;4.57;2.50;;;;;;;8.73;89.42;100813.47;7395621;19;20382;-71
2023/12/28 11:24:55;;;;;;;4.30;2.97;;;;;;;8.81;85.57;100809.00;7395073;19;20477;-70
2023/12/28 11:27:24;;;;;;;8.60;3.40;;;;;;;8.88;87.00;100808.03;7394527;19;20354;-70
2023/12/28 11:29:54;;;;;;;4.72;2.80;;;;;;;8.92;86.73;100791.41;7396850;19;20022;-67
2023/12/28 11:32:25;;;;;;;5.32;2.85;;;;;;;8.96;86.75;100806.19;7396525;19;20021;-69
2023/12/28 11:35:00;;;;;;;5.13;3.30;;;;;;;9.01;84.09;100797.41;7394555;19;20032;-69
2023/12/28 11:37:30;;;;;;;4.38;2.90;;;;;;;9.05;83.78;100791.22;7397034;19;20007;-70
2023/12/28 11:40:01;;;;;;;6.00;3.28;;;;;;;9.08;85.45;100799.03;7397021;19;20074;-70
2023/12/28 11:42:30;;;;;;;5.20;3.33;;;;;;;9.10;86.71;100800.75;7396109;19;20014;-70
2023/12/28 11:44:58;;;;;;;4.88;3.17;;;;;;;9.13;85.25;100805.06;7394336;19;20018;-69